Time;durP1;ratioP1;P1;durP2;ratioP2;P2;SDS_P1;SDS_P2;PMS_P1;PMS_P2;Temp;Humidity;BMP_temperature;BMP_pressure;BME280_temperature;BME280_humidity;BME280_pressure;Samples;Min_cycle;Max_cycle;Signal;HPM_P1;HPM_P2
2023/03/03 00:02:15;;;;;;;19.80;11.17;;;;;;;;;;4996311;28;20414;-80
2023/03/03 00:04:44;;;;;;;18.70;8.70;;;;;;;;;;4995923;28;20779;-80
2023/03/03 00:07:11;;;;;;;17.07;10.80;;;;;;;;;;4995802;28;20510;-85
2023/03/03 00:09:37;;;;;;;19.17;11.20;;;;;;;;;;4995920;28;20776;-83
2023/03/03 00:12:17;;;;;;;17.60;9.90;;;;;;;;;;4994685;28;20465;-80
2023/03/03 00:14:46;;;;;;;22.43;11.23;;;;;;;;;;4995405;28;20414;-80
2023/03/03 00:17:19;;;;;;;18.87;10.27;;;;;;;;;;4994548;28;20422;-80
2023/03/03 00:19:46;;;;;;;17.73;9.80;;;;;;;;;;5001381;28;20421;-80
2023/03/03 00:22:22;;;;;;;22.30;12.43;;;;;;;;;;5000895;28;20426;-90
2023/03/03 00:24:48;;;;;;;19.27;11.40;;;;;;;;;;5003653;28;20422;-81
2023/03/03 00:27:22;;;;;;;21.50;9.83;;;;;;;;;;5014556;28;20484;-80
2023/03/03 00:29:58;;;;;;;17.43;10.30;;;;;;;;;;5014377;28;20891;-80
2023/03/03 00:32:31;;;;;;;18.80;11.63;;;;;;;;;;5001386;28;20813;-80
2023/03/03 00:35:01;;;;;;;17.17;10.57;;;;;;;;;;5014946;28;20549;-81
2023/03/03 00:37:32;;;;;;;19.10;11.97;;;;;;;;;;5014684;28;20418;-81
2023/03/03 00:40:13;;;;;;;22.27;10.67;;;;;;;;;;5014664;28;20422;-81
2023/03/03 00:42:40;;;;;;;22.40;12.03;;;;;;;;;;5014808;28;20410;-83
2023/03/03 00:45:27;;;;;;;22.43;13.37;;;;;;;;;;5014044;28;20937;-81
2023/03/03 00:47:53;;;;;;;23.43;11.20;;;;;;;;;;5014513;28;20474;-87
2023/03/03 00:50:26;;;;;;;22.03;12.67;;;;;;;;;;5014697;28;20757;-87
2023/03/03 00:53:03;;;;;;;24.90;12.37;;;;;;;;;;5014770;28;20504;-85
2023/03/03 00:55:29;;;;;;;20.07;12.03;;;;;;;;;;5014688;28;20556;-86
2023/03/03 00:57:55;;;;;;;23.67;11.67;;;;;;;;;;5014081;28;20418;-85
2023/03/03 01:00:24;;;;;;;24.00;12.83;;;;;;;;;;5014155;28;20421;-85
2023/03/03 01:02:51;;;;;;;23.73;13.67;;;;;;;;;;5014378;28;20428;-83
2023/03/03 01:05:17;;;;;;;20.97;12.10;;;;;;;;;;5014227;28;20449;-85
2023/03/03 01:07:43;;;;;;;21.30;12.93;;;;;;;;;;5014268;28;20468;-85
2023/03/03 01:10:10;;;;;;;23.43;15.03;;;;;;;;;;5014145;28;20410;-84
2023/03/03 01:12:37;;;;;;;22.20;13.10;;;;;;;;;;5014147;28;20453;-80
2023/03/03 01:15:03;;;;;;;28.03;15.10;;;;;;;;;;5013668;28;20414;-83
2023/03/03 01:17:29;;;;;;;28.83;14.73;;;;;;;;;;5014024;28;21302;-83
2023/03/03 01:19:55;;;;;;;27.50;15.80;;;;;;;;;;5013986;28;20402;-81
2023/03/03 01:22:21;;;;;;;33.77;16.97;;;;;;;;;;5013909;28;20475;-83
2023/03/03 01:24:47;;;;;;;31.80;16.43;;;;;;;;;;5012571;28;20414;-83
2023/03/03 01:27:13;;;;;;;39.03;18.30;;;;;;;;;;5013626;28;20524;-85
2023/03/03 01:29:38;;;;;;;47.27;19.10;;;;;;;;;;5013551;28;20432;-82
2023/03/03 01:32:04;;;;;;;50.70;22.00;;;;;;;;;;5013715;28;20453;-84
2023/03/03 01:34:30;;;;;;;43.17;21.27;;;;;;;;;;5013705;28;20419;-81
2023/03/03 01:36:56;;;;;;;49.60;21.73;;;;;;;;;;5013861;28;20888;-82
2023/03/03 01:39:22;;;;;;;40.33;19.30;;;;;;;;;;5013551;28;20418;-83
2023/03/03 01:41:48;;;;;;;43.57;21.27;;;;;;;;;;5013615;28;20410;-83
2023/03/03 01:44:14;;;;;;;42.83;17.60;;;;;;;;;;5012642;28;20902;-85
2023/03/03 01:47:01;;;;;;;34.67;19.37;;;;;;;;;;5013164;28;20493;-80
2023/03/03 01:49:41;;;;;;;38.90;18.27;;;;;;;;;;5013565;28;20900;-85
2023/03/03 01:52:13;;;;;;;38.57;17.53;;;;;;;;;;5013490;28;20415;-80
2023/03/03 01:54:41;;;;;;;44.63;17.50;;;;;;;;;;5013367;28;20406;-82
2023/03/03 01:57:10;;;;;;;46.77;21.60;;;;;;;;;;5013503;28;20841;-84
2023/03/03 01:59:40;;;;;;;58.13;24.10;;;;;;;;;;5013216;28;20835;-80
2023/03/03 02:02:07;;;;;;;58.40;24.63;;;;;;;;;;5013271;28;20734;-80
2023/03/03 02:04:34;;;;;;;53.73;22.30;;;;;;;;;;5013311;28;20414;-83
2023/03/03 02:07:06;;;;;;;57.73;25.97;;;;;;;;;;5013241;28;20465;-87
2023/03/03 02:09:32;;;;;;;55.23;24.73;;;;;;;;;;5012722;28;20428;-86
2023/03/03 02:12:01;;;;;;;52.60;20.93;;;;;;;;;;5012275;28;20409;-86
2023/03/03 02:14:26;;;;;;;52.50;21.77;;;;;;;;;;5012066;28;20808;-80
2023/03/03 02:16:52;;;;;;;65.10;25.47;;;;;;;;;;5013041;28;20402;-88
2023/03/03 02:19:27;;;;;;;58.17;24.63;;;;;;;;;;5013178;28;20398;-80
2023/03/03 02:21:53;;;;;;;51.70;23.63;;;;;;;;;;5013054;28;20445;-79
2023/03/03 02:24:25;;;;;;;60.00;22.70;;;;;;;;;;5013819;28;20397;-80
2023/03/03 02:26:51;;;;;;;55.23;23.60;;;;;;;;;;5012493;28;20462;-88
2023/03/03 02:29:17;;;;;;;63.83;20.77;;;;;;;;;;5013641;28;20418;-79
2023/03/03 02:31:43;;;;;;;59.50;22.30;;;;;;;;;;5012894;28;20420;-81
2023/03/03 02:34:09;;;;;;;52.13;21.73;;;;;;;;;;5013541;28;20945;-87
2023/03/03 02:36:36;;;;;;;56.97;21.17;;;;;;;;;;5013648;28;20413;-88
2023/03/03 02:39:22;;;;;;;49.20;21.60;;;;;;;;;;5013230;28;20418;-87
2023/03/03 02:41:58;;;;;;;61.47;21.30;;;;;;;;;;5013272;28;20774;-85
2023/03/03 02:44:25;;;;;;;43.40;20.30;;;;;;;;;;5013022;28;20410;-87
2023/03/03 02:46:51;;;;;;;58.37;22.20;;;;;;;;;;5013337;28;20500;-80
2023/03/03 02:49:21;;;;;;;47.87;21.87;;;;;;;;;;5013181;28;20417;-80
2023/03/03 02:51:47;;;;;;;61.37;22.50;;;;;;;;;;5013131;28;20926;-80
2023/03/03 02:54:14;;;;;;;49.53;21.17;;;;;;;;;;5013043;28;20468;-88
2023/03/03 02:56:40;;;;;;;46.47;20.20;;;;;;;;;;5013086;28;20513;-80
2023/03/03 02:59:09;;;;;;;46.60;20.60;;;;;;;;;;5012982;28;20438;-80
2023/03/03 03:01:36;;;;;;;52.43;24.20;;;;;;;;;;5012993;28;20505;-81
2023/03/03 03:04:10;;;;;;;40.03;19.00;;;;;;;;;;5013032;28;20398;-84
2023/03/03 03:06:36;;;;;;;53.37;19.53;;;;;;;;;;5012938;28;20466;-81
2023/03/03 03:09:02;;;;;;;41.90;20.33;;;;;;;;;;5013077;28;20420;-81
2023/03/03 03:11:28;;;;;;;57.17;21.77;;;;;;;;;;5013136;28;20969;-82
2023/03/03 03:13:54;;;;;;;44.77;20.40;;;;;;;;;;5012995;28;20521;-81
2023/03/03 03:16:20;;;;;;;43.30;18.90;;;;;;;;;;5012498;28;20462;-80
2023/03/03 03:18:46;;;;;;;44.50;20.07;;;;;;;;;;5012845;28;20461;-81
2023/03/03 03:21:13;;;;;;;42.40;20.23;;;;;;;;;;5015230;28;20422;-86
2023/03/03 03:23:42;;;;;;;43.23;18.73;;;;;;;;;;5016597;28;20418;-81
2023/03/03 03:26:09;;;;;;;54.77;23.83;;;;;;;;;;5016452;28;20907;-79
2023/03/03 03:28:34;;;;;;;42.10;19.67;;;;;;;;;;5016460;28;20512;-81
2023/03/03 03:31:01;;;;;;;57.30;20.13;;;;;;;;;;5016001;28;20491;-79
2023/03/03 03:33:27;;;;;;;42.50;18.63;;;;;;;;;;5016265;28;20474;-86
2023/03/03 03:35:54;;;;;;;48.33;19.40;;;;;;;;;;5016363;28;20497;-86
2023/03/03 03:38:20;;;;;;;36.03;19.40;;;;;;;;;;5016576;28;20491;-82
2023/03/03 03:40:46;;;;;;;47.27;20.27;;;;;;;;;;5015648;28;20418;-82
2023/03/03 03:43:12;;;;;;;44.60;19.10;;;;;;;;;;5016477;28;20418;-88
2023/03/03 03:45:38;;;;;;;45.10;19.83;;;;;;;;;;5016403;28;20510;-84
2023/03/03 03:48:04;;;;;;;43.47;18.03;;;;;;;;;;5016409;28;20543;-89
2023/03/03 03:50:30;;;;;;;47.57;20.60;;;;;;;;;;5016335;28;20410;-81
2023/03/03 03:52:56;;;;;;;37.43;18.10;;;;;;;;;;5015190;28;21026;-91
2023/03/03 03:55:21;;;;;;;34.90;17.00;;;;;;;;;;5015029;28;20426;-90
2023/03/03 03:57:47;;;;;;;42.60;17.97;;;;;;;;;;5016037;28;20421;-81
2023/03/03 04:00:14;;;;;;;38.60;17.63;;;;;;;;;;5015930;28;20418;-81
2023/03/03 04:02:40;;;;;;;49.07;18.33;;;;;;;;;;5016009;28;20433;-91
2023/03/03 04:05:06;;;;;;;36.40;19.87;;;;;;;;;;5015398;28;20420;-81
2023/03/03 04:07:32;;;;;;;52.60;20.93;;;;;;;;;;5016000;28;20506;-80
2023/03/03 04:09:58;;;;;;;36.57;17.90;;;;;;;;;;5015901;28;20465;-80
2023/03/03 04:12:24;;;;;;;45.77;18.23;;;;;;;;;;5015704;28;20479;-82
2023/03/03 04:14:50;;;;;;;44.10;19.20;;;;;;;;;;5015637;28;20410;-90
2023/03/03 04:17:20;;;;;;;37.30;18.87;;;;;;;;;;5014470;28;20756;-81
2023/03/03 04:19:46;;;;;;;40.50;20.67;;;;;;;;;;5015523;28;20905;-80
2023/03/03 04:22:13;;;;;;;59.07;19.33;;;;;;;;;;5015763;28;20457;-82
2023/03/03 04:24:39;;;;;;;37.37;18.80;;;;;;;;;;5015780;28;20414;-92
2023/03/03 04:27:05;;;;;;;44.93;19.90;;;;;;;;;;5015725;28;20813;-81
2023/03/03 04:29:31;;;;;;;59.27;21.93;;;;;;;;;;5015282;28;20406;-88
2023/03/03 04:31:57;;;;;;;41.90;19.43;;;;;;;;;;5015407;28;20465;-89
2023/03/03 04:34:23;;;;;;;53.43;17.90;;;;;;;;;;5014609;28;20422;-82
2023/03/03 04:36:49;;;;;;;45.33;21.23;;;;;;;;;;5015551;28;20810;-88
2023/03/03 04:39:15;;;;;;;41.30;20.27;;;;;;;;;;5015308;28;20410;-81
2023/03/03 04:41:41;;;;;;;43.60;19.27;;;;;;;;;;5015449;28;20421;-81
2023/03/03 04:44:07;;;;;;;42.00;18.90;;;;;;;;;;5015002;28;20798;-82
2023/03/03 04:46:35;;;;;;;47.47;21.57;;;;;;;;;;5014112;28;20469;-81
2023/03/03 04:49:02;;;;;;;49.37;18.73;;;;;;;;;;5014087;28;20418;-82
2023/03/03 04:51:28;;;;;;;40.67;19.80;;;;;;;;;;5014022;28;20504;-83
2023/03/03 04:53:54;;;;;;;44.37;17.90;;;;;;;;;;5013981;28;20537;-92
2023/03/03 04:56:21;;;;;;;43.20;20.13;;;;;;;;;;5014965;28;20827;-85
2023/03/03 04:58:47;;;;;;;37.43;18.87;;;;;;;;;;5014937;28;20889;-86
2023/03/03 05:01:13;;;;;;;35.63;18.53;;;;;;;;;;5014984;28;20421;-90
2023/03/03 05:03:39;;;;;;;38.23;18.67;;;;;;;;;;5014999;28;20444;-88
2023/03/03 05:06:05;;;;;;;40.43;20.50;;;;;;;;;;5013784;28;20414;-87
2023/03/03 05:08:31;;;;;;;32.37;16.77;;;;;;;;;;5014688;28;20893;-84
2023/03/03 05:10:58;;;;;;;40.07;18.30;;;;;;;;;;5014625;28;20442;-81
2023/03/03 05:13:26;;;;;;;38.13;18.80;;;;;;;;;;5014617;28;20418;-85
2023/03/03 05:15:52;;;;;;;42.43;19.47;;;;;;;;;;5014328;28;20559;-90
2023/03/03 05:18:22;;;;;;;47.53;20.23;;;;;;;;;;5014845;28;20436;-81
2023/03/03 05:20:49;;;;;;;41.57;20.13;;;;;;;;;;5014331;28;20417;-81
2023/03/03 05:23:17;;;;;;;44.07;17.93;;;;;;;;;;5013131;28;20416;-81
2023/03/03 05:25:43;;;;;;;32.10;18.27;;;;;;;;;;5014518;28;20770;-81
2023/03/03 05:28:12;;;;;;;37.23;19.13;;;;;;;;;;5014353;28;20476;-81
2023/03/03 05:30:39;;;;;;;34.03;19.83;;;;;;;;;;5014159;28;20415;-80
2023/03/03 05:33:05;;;;;;;32.90;16.87;;;;;;;;;;5014319;28;20820;-80
2023/03/03 05:35:31;;;;;;;42.73;19.57;;;;;;;;;;5015908;28;20402;-92
2023/03/03 05:37:57;;;;;;;39.07;17.80;;;;;;;;;;5018101;28;20430;-88
2023/03/03 05:40:24;;;;;;;44.60;21.37;;;;;;;;;;5014521;28;20757;-83
2023/03/03 05:42:50;;;;;;;39.93;19.17;;;;;;;;;;5013471;28;20420;-90
2023/03/03 05:45:19;;;;;;;34.97;17.57;;;;;;;;;;5013775;28;20409;-79
2023/03/03 05:47:45;;;;;;;38.20;19.07;;;;;;;;;;5012398;28;20486;-80
2023/03/03 05:50:11;;;;;;;38.87;18.70;;;;;;;;;;5013803;28;20404;-78
2023/03/03 05:52:37;;;;;;;46.67;21.30;;;;;;;;;;5013694;28;20419;-85
2023/03/03 05:55:03;;;;;;;39.70;19.70;;;;;;;;;;5012328;28;20483;-80
2023/03/03 05:57:29;;;;;;;43.37;20.70;;;;;;;;;;5013673;28;20448;-87
2023/03/03 05:59:55;;;;;;;38.73;19.87;;;;;;;;;;5013293;28;20408;-84
2023/03/03 06:02:21;;;;;;;39.90;18.90;;;;;;;;;;5013570;28;20831;-84
2023/03/03 06:04:47;;;;;;;39.40;17.70;;;;;;;;;;5013659;28;20446;-85
2023/03/03 06:07:13;;;;;;;47.30;21.03;;;;;;;;;;5013366;28;20559;-83
2023/03/03 06:09:39;;;;;;;39.10;19.90;;;;;;;;;;4972474;28;20423;-85
2023/03/03 06:12:05;;;;;;;40.60;17.90;;;;;;;;;;5012937;28;20431;-82
2023/03/03 06:14:31;;;;;;;47.53;20.83;;;;;;;;;;5013230;28;20437;-86
2023/03/03 06:16:57;;;;;;;40.83;20.23;;;;;;;;;;5013871;28;20483;-88
2023/03/03 06:19:24;;;;;;;40.47;19.20;;;;;;;;;;5013139;28;20914;-86
2023/03/03 06:21:50;;;;;;;39.70;19.10;;;;;;;;;;5014832;28;20776;-88
2023/03/03 06:24:19;;;;;;;42.43;20.80;;;;;;;;;;5013206;28;20510;-89
2023/03/03 06:26:45;;;;;;;51.27;25.30;;;;;;;;;;5013304;28;20559;-85
2023/03/03 06:29:14;;;;;;;42.50;20.60;;;;;;;;;;5013245;28;20445;-89
2023/03/03 06:31:40;;;;;;;48.33;21.00;;;;;;;;;;5012043;28;20414;-88
2023/03/03 06:34:06;;;;;;;41.47;21.90;;;;;;;;;;5013272;28;20445;-88
2023/03/03 06:36:38;;;;;;;36.70;17.97;;;;;;;;;;5013019;28;20499;-86
2023/03/03 06:39:06;;;;;;;36.33;18.57;;;;;;;;;;5013440;28;20422;-88
2023/03/03 06:41:32;;;;;;;46.30;19.90;;;;;;;;;;5013243;28;20899;-87
2023/03/03 06:43:59;;;;;;;42.60;20.40;;;;;;;;;;5013131;28;20553;-88
2023/03/03 06:46:27;;;;;;;46.80;23.53;;;;;;;;;;5014156;28;20923;-87
2023/03/03 06:48:53;;;;;;;41.97;19.67;;;;;;;;;;5013392;28;20911;-88
2023/03/03 06:51:19;;;;;;;49.17;21.23;;;;;;;;;;5013268;28;20406;-88
2023/03/03 06:53:45;;;;;;;42.37;20.43;;;;;;;;;;5013439;28;20420;-89
2023/03/03 06:56:11;;;;;;;48.03;23.00;;;;;;;;;;5017267;28;20182;-88
2023/03/03 06:58:37;;;;;;;38.97;20.63;;;;;;;;;;5017029;28;20429;-89
2023/03/03 07:01:09;;;;;;;41.40;19.60;;;;;;;;;;5017528;28;20906;-91
2023/03/03 07:03:35;;;;;;;44.47;19.40;;;;;;;;;;5017341;28;20410;-81
2023/03/03 07:06:02;;;;;;;49.83;21.70;;;;;;;;;;5017427;28;20509;-83
2023/03/03 07:08:30;;;;;;;42.87;21.70;;;;;;;;;;4979610;28;20627;-81
2023/03/03 07:11:00;;;;;;;45.17;19.60;;;;;;;;;;5035859;28;20422;-87
2023/03/03 07:13:28;;;;;;;62.60;22.70;;;;;;;;;;5036543;28;20417;-85
2023/03/03 07:15:55;;;;;;;38.17;17.97;;;;;;;;;;5036467;28;20429;-87
2023/03/03 07:18:33;;;;;;;57.83;22.20;;;;;;;;;;5035676;28;20423;-85
2023/03/03 07:21:06;;;;;;;42.10;21.40;;;;;;;;;;5036816;28;20920;-88
2023/03/03 07:23:41;;;;;;;41.90;17.70;;;;;;;;;;5035487;28;20486;-88
2023/03/03 07:26:08;;;;;;;43.70;19.87;;;;;;;;;;5036533;28;20444;-86
2023/03/03 07:28:40;;;;;;;39.00;21.20;;;;;;;;;;5035688;28;20485;-88
2023/03/03 07:31:16;;;;;;;44.70;23.30;;;;;;;;;;5036346;28;20503;-90
2023/03/03 07:33:44;;;;;;;50.63;21.50;;;;;;;;;;5036759;28;20464;-86
2023/03/03 07:36:30;;;;;;;48.50;24.20;;;;;;;;;;5036950;28;20419;-89
2023/03/03 07:38:58;;;;;;;47.93;21.23;;;;;;;;;;5036805;28;20409;-88
2023/03/03 07:41:24;;;;;;;47.43;21.50;;;;;;;;;;5029022;28;20441;-88
2023/03/03 07:43:53;;;;;;;47.90;22.47;;;;;;;;;;5017000;28;20406;-90
2023/03/03 07:46:28;;;;;;;54.47;24.00;;;;;;;;;;5016287;28;20436;-84
2023/03/03 07:48:55;;;;;;;46.53;25.33;;;;;;;;;;5017548;28;20447;-88
2023/03/03 07:51:36;;;;;;;47.40;23.50;;;;;;;;;;5016857;28;20803;-88
2023/03/03 07:54:14;;;;;;;51.40;24.07;;;;;;;;;;5017003;28;20456;-84
2023/03/03 07:56:43;;;;;;;47.30;21.67;;;;;;;;;;5016931;28;20416;-90
2023/03/03 07:59:22;;;;;;;51.53;24.20;;;;;;;;;;5017135;28;20413;-92
2023/03/03 08:01:51;;;;;;;47.10;23.10;;;;;;;;;;5016541;28;20418;-90
2023/03/03 08:04:17;;;;;;;47.50;24.53;;;;;;;;;;5016627;28;20406;-85
2023/03/03 08:06:47;;;;;;;45.27;24.37;;;;;;;;;;5015942;28;20516;-93
2023/03/03 08:09:24;;;;;;;43.83;21.30;;;;;;;;;;4976291;28;20945;-91
2023/03/03 08:11:52;;;;;;;48.63;23.83;;;;;;;;;;5016671;28;20401;-92
2023/03/03 08:14:22;;;;;;;47.67;25.77;;;;;;;;;;5016134;28;20406;-93
2023/03/03 08:16:51;;;;;;;53.90;24.30;;;;;;;;;;5016504;28;20409;-85
2023/03/03 08:19:17;;;;;;;55.43;24.47;;;;;;;;;;5016499;28;20499;-83
2023/03/03 08:21:43;;;;;;;48.37;24.27;;;;;;;;;;5018499;28;20419;-88
2023/03/03 08:24:09;;;;;;;53.20;25.70;;;;;;;;;;5022077;28;20401;-91
2023/03/03 08:26:35;;;;;;;49.80;22.87;;;;;;;;;;5015931;28;20410;-86
2023/03/03 08:29:01;;;;;;;44.93;21.27;;;;;;;;;;5014001;28;20849;-84
2023/03/03 08:31:28;;;;;;;45.80;24.37;;;;;;;;;;5015775;28;20444;-86
2023/03/03 08:33:54;;;;;;;52.20;22.80;;;;;;;;;;5015352;28;20477;-86
2023/03/03 08:36:20;;;;;;;45.23;22.43;;;;;;;;;;5014243;28;20519;-88
2023/03/03 08:38:46;;;;;;;44.47;23.03;;;;;;;;;;5015485;28;20446;-83
2023/03/03 08:41:12;;;;;;;55.53;23.67;;;;;;;;;;5014836;28;20435;-91
2023/03/03 08:43:38;;;;;;;50.00;24.40;;;;;;;;;;5015513;28;20424;-91
2023/03/03 08:46:05;;;;;;;43.70;21.63;;;;;;;;;;5014742;28;20425;-85
2023/03/03 08:48:31;;;;;;;41.80;20.77;;;;;;;;;;5015124;28;20465;-81
2023/03/03 08:50:57;;;;;;;43.50;20.30;;;;;;;;;;5014936;28;20407;-82
2023/03/03 08:53:24;;;;;;;42.87;20.20;;;;;;;;;;5013714;28;20420;-85
2023/03/03 08:55:50;;;;;;;36.90;18.23;;;;;;;;;;5014661;28;20421;-80
2023/03/03 08:58:17;;;;;;;53.00;23.00;;;;;;;;;;5014474;28;20416;-77
2023/03/03 09:00:43;;;;;;;37.47;19.47;;;;;;;;;;5013474;28;20426;-84
2023/03/03 09:03:09;;;;;;;44.87;20.80;;;;;;;;;;5014793;28;20425;-81
2023/03/03 09:05:36;;;;;;;49.97;20.70;;;;;;;;;;5014700;28;20403;-78
2023/03/03 09:08:02;;;;;;;40.37;19.03;;;;;;;;;;5014534;28;20479;-79
2023/03/03 09:10:30;;;;;;;36.63;18.37;;;;;;;;;;5013257;28;20414;-82
2023/03/03 09:12:58;;;;;;;31.47;16.87;;;;;;;;;;4960190;28;20440;-82
2023/03/03 09:15:31;;;;;;;31.57;16.53;;;;;;;;;;4994637;28;20411;-87
2023/03/03 09:18:09;;;;;;;40.23;20.37;;;;;;;;;;4994751;28;20422;-83
2023/03/03 09:20:36;;;;;;;36.03;17.47;;;;;;;;;;4994968;28;20471;-87
2023/03/03 09:23:25;;;;;;;35.20;18.63;;;;;;;;;;5009971;28;20751;-84
2023/03/03 09:25:52;;;;;;;37.40;18.13;;;;;;;;;;5009763;28;20423;-82
2023/03/03 09:28:25;;;;;;;29.20;15.27;;;;;;;;;;4994329;28;20474;-85
2023/03/03 09:30:52;;;;;;;36.33;19.87;;;;;;;;;;4994507;28;20440;-78
2023/03/03 09:33:18;;;;;;;44.80;22.90;;;;;;;;;;4994370;28;20489;-79
2023/03/03 09:35:47;;;;;;;34.73;21.13;;;;;;;;;;4994498;28;20435;-84
2023/03/03 09:38:25;;;;;;;43.23;21.37;;;;;;;;;;5009582;28;20415;-86
2023/03/03 09:41:09;;;;;;;39.97;21.37;;;;;;;;;;4994408;28;20498;-86
2023/03/03 09:43:40;;;;;;;43.37;21.23;;;;;;;;;;5009104;28;20407;-81
2023/03/03 10:07:11;;;;;;;38.77;18.80;;;;;;;;;;5094437;23;20589;-89
2023/03/03 10:09:58;;;;;;;29.57;17.67;;;;;;;;;;5034464;28;20459;-87
2023/03/03 10:12:30;;;;;;;32.60;19.87;;;;;;;;;;5007784;28;20466;-88
2023/03/03 10:15:18;;;;;;;38.97;20.70;;;;;;;;;;5033006;28;20779;-92
2023/03/03 10:17:51;;;;;;;30.13;16.27;;;;;;;;;;5032814;28;20425;-83
2023/03/03 10:20:26;;;;;;;27.03;16.20;;;;;;;;;;5032488;28;20405;-80
2023/03/03 10:22:53;;;;;;;34.60;19.33;;;;;;;;;;5032012;28;20434;-80
2023/03/03 10:25:19;;;;;;;32.40;19.20;;;;;;;;;;5032220;28;20412;-80
2023/03/03 10:28:11;;;;;;;41.50;21.80;;;;;;;;;;5032607;28;20820;-81
2023/03/03 10:30:45;;;;;;;31.90;19.00;;;;;;;;;;5032070;28;20483;-80
2023/03/03 10:33:14;;;;;;;44.97;23.50;;;;;;;;;;5032464;28;20459;-81
2023/03/03 10:35:46;;;;;;;45.53;20.33;;;;;;;;;;5032375;28;20438;-81
2023/03/03 10:38:20;;;;;;;38.53;18.20;;;;;;;;;;5031985;28;20410;-80
2023/03/03 10:41:03;;;;;;;43.43;21.83;;;;;;;;;;5032510;28;20771;-80
2023/03/03 10:43:34;;;;;;;36.83;21.00;;;;;;;;;;5032519;28;20905;-80
2023/03/03 10:46:20;;;;;;;40.90;21.13;;;;;;;;;;5032325;28;20774;-80
2023/03/03 10:49:07;;;;;;;42.20;21.63;;;;;;;;;;5032019;28;20488;-82
2023/03/03 10:51:53;;;;;;;37.57;18.37;;;;;;;;;;5001574;28;20417;-81
2023/03/03 10:54:31;;;;;;;38.93;23.27;;;;;;;;;;5016667;28;20421;-79
2023/03/03 10:57:08;;;;;;;37.38;22.10;;;;;;;;;;5031455;28;20765;-82
2023/03/03 10:59:41;;;;;;;35.97;19.33;;;;;;;;;;5032531;28;20430;-79
2023/03/03 11:02:26;;;;;;;37.90;23.45;;;;;;;;;;5029980;28;20414;-79
2023/03/03 11:04:55;;;;;;;33.77;20.67;;;;;;;;;;5032734;28;20167;-80
2023/03/03 11:07:21;;;;;;;35.83;20.67;;;;;;;;;;5032307;28;20504;-80
2023/03/03 11:10:14;;;;;;;31.30;16.47;;;;;;;;;;5032695;28;20515;-79
2023/03/03 11:12:58;;;;;;;28.63;15.00;;;;;;;;;;5011008;28;20458;-80
2023/03/03 11:15:29;;;;;;;25.43;15.10;;;;;;;;;;5032621;28;20752;-79
2023/03/03 11:17:55;;;;;;;26.70;16.87;;;;;;;;;;5032126;28;20412;-78
2023/03/03 11:20:21;;;;;;;31.77;17.10;;;;;;;;;;5032461;28;20415;-79
2023/03/03 11:23:11;;;;;;;29.70;17.43;;;5.40;99.90;;;;;;5032261;28;20176;-79
2023/03/03 11:25:45;;;;;;;28.47;17.20;;;5.20;99.90;;;;;;5032557;28;20171;-78
2023/03/03 11:28:20;;;;;;;27.43;13.63;;;5.10;99.90;;;;;;5032535;28;20474;-79
2023/03/03 11:31:10;;;;;;;23.67;13.57;;;4.90;99.90;;;;;;5032475;28;20826;-79
2023/03/03 11:33:50;;;;;;;22.80;15.10;;;4.80;99.90;;;;;;5032528;28;20479;-79
2023/03/03 11:36:26;;;;;;;22.27;14.93;;;4.90;99.90;;;;;;5032585;28;20456;-78
2023/03/03 11:39:08;;;;;;;16.43;10.63;;;5.20;99.90;;;;;;5032021;28;20433;-79
2023/03/03 11:41:36;;;;;;;16.67;10.13;;;5.00;99.90;;;;;;5033618;28;20460;-79
2023/03/03 11:44:20;;;;;;;18.43;10.50;;;5.00;99.90;;;;;;5035996;28;20461;-79
2023/03/03 11:46:57;;;;;;;15.43;10.93;;;5.10;99.90;;;;;;5035954;28;20461;-78
2023/03/03 11:49:28;;;;;;;14.00;9.80;;;5.10;99.90;;;;;;5034597;28;20428;-78
2023/03/03 11:52:16;;;;;;;16.73;10.17;;;5.00;99.90;;;;;;5035463;28;20406;-79
2023/03/03 11:55:03;;;;;;;14.30;8.90;;;5.10;99.90;;;;;;5035765;28;20480;-78
2023/03/03 11:57:37;;;;;;;16.90;8.43;;;5.10;99.90;;;;;;5034373;28;20420;-78
2023/03/03 12:00:07;;;;;;;16.90;11.07;;;5.20;99.90;;;;;;5034489;28;20747;-79
2023/03/03 12:03:15;;;;;;;17.50;9.73;;;5.20;99.90;;;;;;5039464;28;20513;-78
2023/03/03 12:06:09;;;;;;;11.60;6.50;;;5.40;99.90;;;;;;5055537;28;20441;-79
2023/03/03 12:09:05;;;;;;;14.53;8.93;;;5.70;99.90;;;;;;5054912;28;20575;-79
2023/03/03 12:12:02;;;;;;;16.13;9.47;;;5.60;99.90;;;;;;5055319;28;20471;-79
2023/03/03 12:15:09;;;;;;;9.17;5.30;;;5.70;99.90;;;;;;5048373;28;20830;-79
2023/03/03 12:18:19;;;;;;;10.33;5.40;;;6.20;99.90;;;;;;5055322;28;20420;-80
2023/03/03 12:21:41;;;;;;;9.87;5.40;;;6.00;99.90;;;;;;4993618;28;20431;-78
2023/03/03 12:24:24;;;;;;;7.07;5.13;;;6.10;99.90;;;;;;5013145;28;20498;-79
2023/03/03 12:27:09;;;;;;;6.27;3.70;;;6.10;99.90;;;;;;5013172;28;20463;-80
2023/03/03 12:29:56;;;;;;;7.50;5.37;;;5.80;99.90;;;;;;5043156;28;20426;-80
2023/03/03 12:32:45;;;;;;;12.60;5.23;;;5.90;99.90;;;;;;5055115;28;20425;-78
2023/03/03 12:35:33;;;;;;;11.30;5.60;;;6.10;99.90;;;;;;5054932;28;20922;-80
2023/03/03 12:37:59;;;;;;;10.20;5.10;;;6.20;99.90;;;;;;5054563;28;20446;-80
2023/03/03 12:40:33;;;;;;;6.30;3.57;;;6.70;99.90;;;;;;5054819;28;20437;-80
2023/03/03 12:43:19;;;;;;;14.00;5.10;;;6.90;1.00;;;;;;5054841;28;20175;-80
2023/03/03 12:46:01;;;;;;;6.60;3.77;;;7.40;1.00;;;;;;5044013;28;20419;-79
2023/03/03 12:48:41;;;;;;;5.90;3.73;;;7.80;1.00;;;;;;5054600;28;20468;-80
2023/03/03 12:51:17;;;;;;;7.63;4.27;;;11.00;99.90;;;;;;5054603;28;20448;-80
2023/03/03 12:54:16;;;;;;;6.60;3.27;;;11.30;99.90;;;;;;5053855;28;20415;-80
2023/03/03 12:57:01;;;;;;;6.80;2.10;;;10.40;1.00;;;;;;5054473;28;20409;-80
2023/03/03 13:00:16;;;;;;;9.53;2.93;;;10.50;99.90;;;;;;5054483;28;20462;-79
2023/03/03 13:03:04;;;;;;;9.70;2.60;;;10.00;1.00;;;;;;5054507;28;20897;-80
2023/03/03 13:05:49;;;;;;;6.30;2.70;;;;;;;;;;5054415;28;20492;-80
2023/03/03 13:08:34;;;;;;;4.53;1.83;;;;;;;;;;5053647;28;20505;-80
2023/03/03 13:11:04;;;;;;;7.00;2.13;;;;;;;;;;5054211;28;20919;-79
2023/03/03 13:13:51;;;;;;;6.03;2.80;;;7.50;1.00;;;;;;5054128;28;20493;-80
2023/03/03 13:16:39;;;;;;;5.10;2.47;;;;;;;;;;5054120;28;21091;-80
2023/03/03 13:19:09;;;;;;;5.40;2.13;;;;;;;;;;5052958;28;20421;-80
2023/03/03 13:21:53;;;;;;;10.07;2.97;;;7.30;99.90;;;;;;5053765;28;20490;-80
2023/03/03 13:24:34;;;;;;;8.30;2.80;;;7.30;99.90;;;;;;5053882;28;20412;-80
2023/03/03 13:27:06;;;;;;;7.50;2.20;;;;;;;;;;5053896;28;20455;-80
2023/03/03 13:30:10;;;;;;;6.80;1.83;;;7.00;1.00;;;;;;5053886;28;20500;-80
2023/03/03 13:32:36;;;;;;;4.70;1.60;;;;;;;;;;5040350;28;20422;-80
2023/03/03 13:35:07;;;;;;;5.27;1.47;;;;;;;;;;5053833;28;20403;-79
2023/03/03 13:37:44;;;;;;;8.10;2.67;;;7.20;1.00;;;;;;5053315;28;20435;-80
2023/03/03 13:40:13;;;;;;;7.63;1.50;;;;;;;;;;5052451;28;20507;-79
2023/03/03 13:42:40;;;;;;;4.17;0.80;;;;;;;;;;5053745;28;20420;-80
2023/03/03 13:45:15;;;;;;;2.70;0.93;;;;;;;;;;5053567;28;20453;-79
2023/03/03 13:47:51;;;;;;;7.37;1.10;;;;;;;;;;5053292;28;20826;-80
2023/03/03 13:50:23;;;;;;;1.80;0.93;;;7.50;1.00;;;;;;5033477;28;20426;-80
2023/03/03 13:53:00;;;;;;;3.20;1.03;;;;;;;;;;5033360;28;20428;-79
2023/03/03 13:55:33;;;;;;;5.17;1.93;;;;;;;;;;5033500;28;20510;-78
2023/03/03 13:58:05;;;;;;;2.63;0.90;;;;;;;;;;5033201;28;20473;-79
2023/03/03 14:00:37;;;;;;;4.33;0.80;;;;;;;;;;5033195;28;20771;-79
2023/03/03 14:03:09;;;;;;;6.00;1.27;;;;;;;;;;5033319;28;20427;-79
2023/03/03 14:05:50;;;;;;;2.37;0.70;;;7.10;99.90;;;;;;5032708;28;20407;-79
2023/03/03 14:08:20;;;;;;;3.60;0.83;;;;;;;;;;5015035;28;20519;-79
2023/03/03 14:11:05;;;;;;;5.60;0.70;;;;;;;;;;5033204;28;20507;-78
2023/03/03 14:13:39;;;;;;;3.50;1.07;;;;;;;;;;5033154;28;20904;-78
2023/03/03 14:16:09;;;;;;;4.10;0.83;;;;;;;;;;5031997;28;20846;-78
2023/03/03 14:18:39;;;;;;;3.33;0.70;;;;;;;;;;5033149;28;20404;-79
2023/03/03 14:21:12;;;;;;;2.10;0.53;;;;;;;;;;5033155;28;20504;-78
2023/03/03 14:23:57;;;;;;;2.60;1.00;;;7.10;51.20;;;;;;5032965;28;20404;-79
2023/03/03 14:26:25;;;;;;;4.50;1.33;;;;;;;;;;5033180;28;20416;-79
2023/03/03 14:28:52;;;;;;;3.80;0.83;;;;;;;;;;5032975;28;20555;-78
2023/03/03 14:31:26;;;;;;;0.60;0.30;;;;;;;;;;5032996;28;20920;-78
2023/03/03 14:34:02;;;;;;;2.50;0.70;;;;;;;;;;5032947;28;20492;-79
2023/03/03 14:36:33;;;;;;;3.87;0.73;;;;;;;;;;5032606;28;20419;-78
2023/03/03 14:38:59;;;;;;;2.50;0.77;;;;;;;;;;5032889;28;20421;-79
2023/03/03 14:41:35;;;;;;;2.03;1.17;;;;;;;;;;5032937;28;20407;-78
2023/03/03 14:44:23;;;;;;;3.97;0.80;;;;;;;;;;5032932;28;20426;-79
2023/03/03 14:47:03;;;;;;;3.53;0.83;;;;;;;;;;5032998;28;20402;-78
2023/03/03 14:49:31;;;;;;;1.50;0.60;;;;;;;;;;5032708;28;20497;-78
2023/03/03 14:52:11;;;;;;;9.00;0.93;;;;;;;;;;5032470;28;20401;-79
2023/03/03 14:54:39;;;;;;;3.30;0.50;;;;;;;;;;5031436;28;20798;-79